Time;durP1;ratioP1;P1;durP2;ratioP2;P2;SDS_P1;SDS_P2;PMS_P1;PMS_P2;Temp;Humidity;BMP_temperature;BMP_pressure;BME280_temperature;BME280_humidity;BME280_pressure;Samples;Min_cycle;Max_cycle;Signal;HPM_P1;HPM_P2
2022/07/14 00:01:47;;;;;;;6.00;1.42;;;;;;;15.80;65.05;100979.75;4884264;29;20428;-72
2022/07/14 00:04:13;;;;;;;5.32;2.05;;;;;;;15.79;64.74;100980.84;4904934;29;20037;-74
2022/07/14 00:06:38;;;;;;;4.97;1.80;;;;;;;15.75;64.86;100984.44;4872360;29;20028;-73
2022/07/14 00:09:04;;;;;;;3.13;1.83;;;;;;;15.66;64.83;100982.28;4887001;29;20056;-74
2022/07/14 00:11:30;;;;;;;3.10;1.50;;;;;;;15.61;64.84;100979.59;4900467;29;20499;-73
2022/07/14 00:13:58;;;;;;;4.18;2.08;;;;;;;15.58;64.91;100979.31;4871908;29;20035;-73
2022/07/14 00:16:24;;;;;;;6.55;3.10;;;;;;;15.54;64.78;100979.91;4903952;29;20065;-72
2022/07/14 00:18:50;;;;;;;5.93;2.58;;;;;;;15.48;64.94;100975.53;4887321;29;20103;-73
2022/07/14 00:21:16;;;;;;;8.75;3.13;;;;;;;15.46;64.70;100983.28;4903461;29;20048;-72
2022/07/14 00:23:42;;;;;;;10.40;5.10;;;;;;;15.45;64.61;100986.28;4871072;29;20040;-72
2022/07/14 00:26:08;;;;;;;10.05;4.90;;;;;;;15.42;63.43;100984.97;4903505;29;20387;-73
2022/07/14 00:28:34;;;;;;;11.80;5.75;;;;;;;15.43;62.44;100981.06;4875444;29;20040;-72
2022/07/14 00:31:03;;;;;;;14.10;5.85;;;;;;;15.41;61.37;100986.06;4885913;29;20084;-71
2022/07/14 00:33:32;;;;;;;11.60;4.38;;;;;;;15.36;60.89;100983.31;4887958;29;20036;-71
2022/07/14 00:35:58;;;;;;;7.07;4.00;;;;;;;15.30;60.16;100978.94;4902745;29;20028;-73
2022/07/14 00:38:24;;;;;;;6.13;3.67;;;;;;;15.24;59.74;100985.59;4887443;29;20031;-72
2022/07/14 00:40:50;;;;;;;8.55;3.38;;;;;;;15.17;59.19;100986.75;4901793;29;20036;-72
2022/07/14 00:43:15;;;;;;;4.57;2.67;;;;;;;15.09;58.95;100979.06;4867237;29;20040;-73
2022/07/14 00:45:41;;;;;;;6.43;2.45;;;;;;;15.01;58.75;100982.41;4870188;29;20039;-72
2022/07/14 00:48:06;;;;;;;4.55;2.00;;;;;;;14.94;58.87;100984.66;4890444;29;20017;-72
2022/07/14 00:50:32;;;;;;;5.47;1.83;;;;;;;14.90;58.25;100980.81;4886697;29;20036;-71
2022/07/14 00:52:58;;;;;;;1.63;1.20;;;;;;;14.85;58.10;100976.16;4871231;29;20028;-72
2022/07/14 00:55:24;;;;;;;2.42;1.00;;;;;;;14.84;57.38;100977.25;4902061;29;20032;-72
2022/07/14 00:57:50;;;;;;;2.80;1.05;;;;;;;14.82;57.67;100982.19;4903755;29;20036;-72
2022/07/14 01:00:17;;;;;;;2.30;0.98;;;;;;;14.72;57.34;100983.06;4887783;29;20059;-72
2022/07/14 01:02:44;;;;;;;4.00;1.63;;;;;;;14.68;57.91;100987.50;4884313;29;20436;-73
2022/07/14 01:05:10;;;;;;;4.95;2.10;;;;;;;14.60;58.53;100988.88;4885435;29;21504;-72
2022/07/14 01:07:35;;;;;;;5.25;1.58;;;;;;;14.51;59.00;100993.28;4886796;29;20060;-72
2022/07/14 01:10:00;;;;;;;2.53;1.67;;;;;;;14.39;59.57;100992.75;4886105;29;20084;-72
2022/07/14 01:12:26;;;;;;;2.05;1.42;;;;;;;14.27;59.82;100979.28;4866208;29;20059;-73
2022/07/14 01:14:51;;;;;;;2.67;1.48;;;;;;;14.19;60.03;100983.41;4885870;29;20481;-72
2022/07/14 01:17:17;;;;;;;5.60;1.42;;;;;;;14.16;60.31;100980.41;4884809;29;20120;-72
2022/07/14 01:19:43;;;;;;;6.15;2.15;;;;;;;14.08;60.80;100979.84;4872514;29;20032;-73
2022/07/14 01:22:09;;;;;;;4.57;2.53;;;;;;;14.01;61.30;100971.06;4886997;29;20043;-71
2022/07/14 01:24:35;;;;;;;5.07;2.92;;;;;;;13.97;61.34;100975.44;4866988;29;20033;-72
2022/07/14 01:27:01;;;;;;;8.38;3.38;;;;;;;13.90;62.69;100980.41;4884937;29;20033;-72
2022/07/14 01:29:26;;;;;;;8.73;3.42;;;;;;;13.83;62.12;100980.69;4902206;29;20028;-72
2022/07/14 01:31:52;;;;;;;5.60;3.10;;;;;;;13.76;62.15;100994.69;4902484;29;20076;-72
2022/07/14 01:34:18;;;;;;;9.52;3.72;;;;;;;13.74;62.51;100988.66;4884845;29;20044;-72
2022/07/14 01:36:44;;;;;;;9.23;3.30;;;;;;;13.69;62.54;100985.88;4903254;29;20037;-71
2022/07/14 01:39:09;;;;;;;3.53;2.13;;;;;;;13.67;62.84;100988.09;4901041;29;20040;-73
2022/07/14 01:41:35;;;;;;;5.65;2.70;;;;;;;13.61;62.45;100978.22;4869209;29;20036;-73
2022/07/14 01:44:01;;;;;;;4.30;2.20;;;;;;;13.57;62.20;100977.09;4885345;29;20108;-72
2022/07/14 01:46:27;;;;;;;3.08;1.70;;;;;;;13.56;62.12;100987.25;4885233;29;20032;-73
2022/07/14 01:48:52;;;;;;;4.35;2.00;;;;;;;13.56;61.81;100979.00;4880786;29;20033;-73
2022/07/14 01:51:18;;;;;;;3.20;2.15;;;;;;;13.52;62.41;100979.81;4900266;29;20436;-73
2022/07/14 01:53:43;;;;;;;3.30;1.63;;;;;;;13.52;62.08;100974.31;4899873;29;20036;-73
2022/07/14 01:56:09;;;;;;;4.15;1.90;;;;;;;13.49;61.42;100969.38;4879949;29;20028;-72
2022/07/14 01:58:35;;;;;;;2.88;1.75;;;;;;;13.50;61.65;100971.03;4880234;29;20031;-73
2022/07/14 02:03:45;;;;;;;3.50;1.60;;;;;;;13.66;61.10;100980.13;4885823;29;20052;-71
2022/07/14 02:06:11;;;;;;;2.55;1.85;;;;;;;13.86;60.38;100984.81;4888298;29;20033;-72
2022/07/14 02:08:36;;;;;;;4.07;1.60;;;;;;;14.08;59.70;100988.09;4880359;29;20072;-71
2022/07/14 02:13:46;;;;;;;3.97;1.70;;;;;;;14.42;58.54;100993.00;4886044;29;20089;-72
2022/07/14 02:16:12;;;;;;;3.15;1.55;;;;;;;14.46;58.34;100985.84;4886192;29;20734;-72
2022/07/14 02:18:37;;;;;;;4.15;1.92;;;;;;;14.51;58.57;100989.69;4868934;29;20048;-72
2022/07/14 02:21:02;;;;;;;1.63;1.20;;;;;;;14.47;57.63;100978.41;4901125;29;20047;-72
2022/07/14 02:23:28;;;;;;;1.85;1.40;;;;;;;14.39;58.12;100985.31;4900034;29;20039;-73
2022/07/14 02:25:53;;;;;;;3.00;1.20;;;;;;;14.27;58.52;100976.53;4866023;29;20029;-72
2022/07/14 02:28:19;;;;;;;2.92;1.42;;;;;;;14.10;58.00;100980.41;4882198;29;20064;-72
2022/07/14 02:30:47;;;;;;;5.18;1.60;;;;;;;13.98;58.43;100985.38;4883686;29;20043;-73
2022/07/14 02:33:13;;;;;;;3.83;1.35;;;;;;;13.90;58.90;100991.41;4878465;29;20067;-72
2022/07/14 02:35:38;;;;;;;4.07;1.38;;;;;;;13.82;59.06;100986.47;4901185;29;20454;-71
2022/07/14 02:38:04;;;;;;;1.95;1.13;;;;;;;13.72;58.58;100984.53;4884786;29;20059;-72
2022/07/14 02:40:29;;;;;;;3.33;1.40;;;;;;;13.69;58.82;100990.56;4899052;29;20353;-72
2022/07/14 02:42:55;;;;;;;2.65;1.15;;;;;;;13.63;58.59;100987.00;4898562;29;20067;-73
2022/07/14 02:45:21;;;;;;;1.85;1.30;;;;;;;13.59;58.59;100985.88;4900607;29;20040;-72
2022/07/14 02:47:46;;;;;;;1.42;1.10;;;;;;;13.56;58.77;100987.25;4845752;29;20040;-72
2022/07/14 02:50:11;;;;;;;1.52;1.05;;;;;;;13.52;58.29;100991.66;4900515;29;20055;-72
2022/07/14 02:52:37;;;;;;;1.00;0.85;;;;;;;13.50;58.45;100987.53;4891410;29;20037;-72
2022/07/14 02:55:03;;;;;;;1.27;1.08;;;;;;;13.50;58.72;100991.09;4894545;29;20441;-71
2022/07/14 02:57:29;;;;;;;4.97;1.15;;;;;;;13.48;58.40;100992.44;4900234;29;20035;-72
2022/07/14 02:59:55;;;;;;;2.17;1.52;;;;;;;13.44;58.50;100990.25;4875212;29;20032;-72
2022/07/14 03:02:21;;;;;;;2.67;1.20;;;;;;;13.41;59.02;100996.28;4887966;29;20044;-72
2022/07/14 03:04:46;;;;;;;1.52;1.00;;;;;;;13.34;58.96;100981.97;4900692;29;20032;-73
2022/07/14 03:07:11;;;;;;;2.17;0.85;;;;;;;13.30;58.96;100983.59;4866434;29;20033;-71
2022/07/14 03:09:37;;;;;;;2.83;1.08;;;;;;;13.29;59.27;100987.44;4880252;29;20035;-71
2022/07/14 03:12:03;;;;;;;1.67;0.70;;;;;;;13.23;59.65;100983.03;4898765;29;20043;-72
2022/07/14 03:14:28;;;;;;;0.90;0.50;;;;;;;13.17;59.25;100975.88;4878055;29;20029;-73
2022/07/14 03:16:53;;;;;;;2.10;0.70;;;;;;;13.06;59.51;100961.28;4863020;29;20407;-73
2022/07/14 03:19:19;;;;;;;0.95;0.70;;;;;;;12.98;59.88;100945.31;4867643;29;20032;-73
2022/07/14 03:21:44;;;;;;;0.93;0.57;;;;;;;12.96;60.06;100951.09;4867844;29;20507;-72
2022/07/14 03:24:10;;;;;;;1.08;0.68;;;;;;;12.89;59.53;100956.84;4883150;29;20048;-73
2022/07/14 03:26:36;;;;;;;1.55;0.68;;;;;;;12.84;59.88;100964.22;4869141;29;20043;-73
2022/07/14 03:29:02;;;;;;;1.92;0.60;;;;;;;12.79;59.97;100950.47;4868919;29;20446;-74
2022/07/14 03:31:27;;;;;;;0.52;0.52;;;;;;;12.75;60.03;100956.50;4897398;29;20035;-73
2022/07/14 03:33:53;;;;;;;0.73;0.40;;;;;;;12.77;60.14;100958.97;4881130;29;20052;-71
2022/07/14 03:36:20;;;;;;;1.33;0.80;;;;;;;12.77;59.64;100972.69;4900146;29;20049;-72
2022/07/14 03:38:46;;;;;;;0.95;0.50;;;;;;;12.74;59.71;100970.50;4878671;29;20048;-71
2022/07/14 03:41:12;;;;;;;0.88;0.50;;;;;;;12.73;59.87;100974.31;4884294;29;20048;-72
2022/07/14 03:43:38;;;;;;;3.50;0.60;;;;;;;12.72;60.38;100986.41;4882875;29;20032;-74
2022/07/14 03:46:03;;;;;;;1.42;0.70;;;;;;;12.69;60.30;100990.50;4884111;29;20040;-74
2022/07/14 03:48:29;;;;;;;2.10;0.60;;;;;;;12.64;60.92;100995.13;4881955;29;20029;-73
2022/07/14 03:50:54;;;;;;;4.07;0.80;;;;;;;12.58;60.74;100999.75;4893628;29;20032;-73
2022/07/14 03:53:20;;;;;;;1.40;0.60;;;;;;;12.48;60.87;100992.28;4890833;29;20113;-73
2022/07/14 03:55:46;;;;;;;1.27;0.73;;;;;;;12.43;60.92;100991.47;4894215;29;20040;-73
2022/07/14 03:58:11;;;;;;;1.17;0.60;;;;;;;12.42;60.81;100995.28;4881727;29;20028;-73
2022/07/14 04:00:38;;;;;;;2.03;0.75;;;;;;;12.36;60.95;100992.50;4880959;29;20105;-73
2022/07/14 04:03:03;;;;;;;3.97;0.80;;;;;;;12.31;61.76;100995.22;4899751;29;20080;-72
2022/07/14 04:05:28;;;;;;;1.10;0.50;;;;;;;12.25;61.62;100990.78;4876363;29;20036;-72
2022/07/14 04:07:54;;;;;;;2.03;0.70;;;;;;;12.21;61.15;100992.41;4884570;29;20028;-72
2022/07/14 04:10:20;;;;;;;1.48;0.60;;;;;;;12.23;61.54;100987.47;4900051;29;20036;-72
2022/07/14 04:12:45;;;;;;;2.70;0.63;;;;;;;12.21;61.63;100989.66;4882602;29;20028;-72
2022/07/14 04:15:11;;;;;;;0.73;0.40;;;;;;;12.21;61.68;100995.97;4867447;29;20048;-72
2022/07/14 04:17:37;;;;;;;0.50;0.50;;;;;;;12.20;61.75;101001.72;4899414;29;20623;-72
2022/07/14 04:20:04;;;;;;;2.70;0.50;;;;;;;12.15;61.83;100996.16;4901214;29;20127;-73
2022/07/14 04:22:29;;;;;;;1.13;0.55;;;;;;;12.17;61.51;101004.97;4882691;29;20037;-73
2022/07/14 04:24:55;;;;;;;2.30;0.50;;;;;;;12.14;61.56;100994.53;4881735;29;20408;-73
2022/07/14 04:27:20;;;;;;;9.02;0.70;;;;;;;12.15;62.25;101007.13;4883546;29;20372;-74
2022/07/14 04:29:46;;;;;;;1.65;0.60;;;;;;;12.14;61.43;101000.84;4881039;29;20028;-74
2022/07/14 04:32:12;;;;;;;2.08;0.60;;;;;;;12.12;61.89;101007.66;4905197;29;20108;-75
2022/07/14 04:34:38;;;;;;;2.05;0.50;;;;;;;12.11;62.26;101000.56;4886139;29;20472;-74
2022/07/14 04:37:04;;;;;;;2.70;0.82;;;;;;;12.13;62.38;101003.84;4903402;29;20035;-72
2022/07/14 04:39:30;;;;;;;3.17;0.80;;;;;;;12.15;62.39;101002.50;4875878;29;20024;-72
2022/07/14 04:41:55;;;;;;;1.63;0.70;;;;;;;12.16;62.14;100995.09;4902032;29;20033;-73
2022/07/14 04:44:21;;;;;;;1.02;0.70;;;;;;;12.15;62.53;101001.66;4869399;29;20048;-73
2022/07/14 04:46:46;;;;;;;2.63;1.10;;;;;;;12.14;62.86;101011.00;4903129;29;20025;-73
2022/07/14 04:52:01;;;;;;;2.27;0.73;;;;;;;12.16;62.95;101006.06;4897096;29;20043;-73
2022/07/14 04:54:28;;;;;;;6.05;1.33;;;;;;;12.17;62.76;101008.53;4883451;29;20043;-72
2022/07/14 04:56:53;;;;;;;1.00;0.75;;;;;;;12.19;62.21;101009.13;4896292;29;20036;-73
2022/07/14 04:59:18;;;;;;;1.77;0.70;;;;;;;12.20;62.84;101004.44;4867720;29;20044;-72
2022/07/14 05:01:44;;;;;;;1.60;0.60;;;;;;;12.22;62.83;101007.75;4881705;29;20073;-72
2022/07/14 05:04:09;;;;;;;1.90;0.60;;;;;;;12.27;62.21;101005.06;4878852;29;20065;-72
2022/07/14 05:06:35;;;;;;;1.13;0.60;;;;;;;12.29;62.39;101004.78;4903602;29;20036;-72
2022/07/14 05:09:01;;;;;;;1.92;0.90;;;;;;;12.35;62.63;101012.78;4882014;29;20039;-72
2022/07/14 05:11:26;;;;;;;1.02;0.80;;;;;;;12.44;62.59;101015.03;4902398;29;20120;-73
2022/07/14 05:13:53;;;;;;;1.25;0.50;;;;;;;12.50;62.38;101013.97;4870745;29;20096;-72
2022/07/14 05:16:18;;;;;;;1.38;0.57;;;;;;;12.53;62.24;101018.94;4901327;29;20056;-72
2022/07/14 05:18:56;;;;;;;1.65;0.60;;;;;;;12.62;61.53;101022.84;4902806;29;20491;-74
2022/07/14 05:21:21;;;;;;;1.55;0.68;;;;;;;12.64;61.61;101020.66;4856621;29;20049;-73
2022/07/14 05:23:47;;;;;;;5.28;0.73;;;;;;;12.75;61.56;101027.84;4880489;29;20084;-74
2022/07/14 05:26:13;;;;;;;0.82;0.60;;;;;;;12.82;61.55;101026.78;4879034;29;20037;-73
2022/07/14 05:28:38;;;;;;;0.65;0.57;;;;;;;12.91;61.21;101034.25;4868043;29;20037;-74
2022/07/14 05:31:04;;;;;;;1.83;0.65;;;;;;;12.98;61.27;101036.75;4885739;29;20033;-73
2022/07/14 05:33:30;;;;;;;1.63;0.45;;;;;;;13.05;61.16;101037.34;4901132;29;20052;-73
2022/07/14 05:35:55;;;;;;;1.23;0.65;;;;;;;13.09;61.04;101032.94;4883977;29;20392;-72
2022/07/14 05:38:21;;;;;;;3.30;0.90;;;;;;;13.17;61.48;101042.63;4878925;29;20033;-72
2022/07/14 05:40:47;;;;;;;2.88;0.63;;;;;;;13.21;61.59;101048.38;4880798;29;20033;-73
2022/07/14 05:43:13;;;;;;;2.03;0.80;;;;;;;13.26;60.90;101042.91;4866636;29;20468;-72
2022/07/14 05:45:39;;;;;;;1.42;0.80;;;;;;;13.34;60.84;101045.16;4884927;29;20040;-72
2022/07/14 05:48:05;;;;;;;1.73;0.65;;;;;;;13.36;60.95;101042.13;4901856;29;20057;-72
2022/07/14 05:50:30;;;;;;;1.83;0.60;;;;;;;13.44;60.96;101056.19;4868398;29;20040;-72
2022/07/14 05:52:56;;;;;;;1.83;0.77;;;;;;;13.49;60.80;101062.78;4901427;29;20111;-72
2022/07/14 05:55:22;;;;;;;1.50;0.82;;;;;;;13.48;60.59;101050.13;4891622;29;20044;-72
2022/07/14 05:57:48;;;;;;;2.30;0.80;;;;;;;13.54;60.55;101055.41;4898594;29;20025;-72
2022/07/14 06:00:15;;;;;;;1.08;0.70;;;;;;;13.62;60.25;101062.28;4878714;29;20119;-73
2022/07/14 06:02:44;;;;;;;1.08;0.55;;;;;;;13.66;60.09;101057.91;4880714;29;20048;-72
2022/07/14 06:05:10;;;;;;;3.65;0.88;;;;;;;13.75;60.67;101056.25;4883309;29;20036;-73
2022/07/14 06:07:36;;;;;;;2.20;0.70;;;;;;;13.79;60.61;101057.38;4902017;29;20039;-74
2022/07/14 06:10:03;;;;;;;3.65;0.50;;;;;;;13.89;60.10;101066.75;4876716;29;20032;-72
2022/07/14 06:12:28;;;;;;;2.13;0.88;;;;;;;13.96;59.92;101050.81;4872855;29;20093;-72
2022/07/14 06:14:54;;;;;;;4.75;1.40;;;;;;;14.03;60.00;101067.88;4899946;29;20056;-72
2022/07/14 06:17:19;;;;;;;3.25;0.93;;;;;;;14.06;59.69;101061.81;4868529;29;20057;-72
2022/07/14 06:19:45;;;;;;;2.92;1.10;;;;;;;14.19;59.42;101065.09;4882989;29;20066;-72
2022/07/14 06:22:11;;;;;;;5.45;1.40;;;;;;;14.26;60.03;101066.47;4881589;29;20041;-73
2022/07/14 06:24:38;;;;;;;2.78;1.30;;;;;;;14.36;59.35;101071.16;4882159;29;20095;-72
2022/07/14 06:27:04;;;;;;;10.35;1.60;;;;;;;14.45;59.24;101066.75;4900100;29;20041;-72
2022/07/14 06:29:29;;;;;;;5.03;1.45;;;;;;;14.51;59.51;101066.75;4881404;29;20764;-74
2022/07/14 06:31:55;;;;;;;3.05;1.13;;;;;;;14.61;59.38;101077.75;4895149;29;20424;-74
2022/07/14 06:34:24;;;;;;;4.22;0.90;;;;;;;14.72;58.72;101082.19;4898767;29;21487;-72
2022/07/14 06:36:49;;;;;;;3.50;1.00;;;;;;;14.86;58.97;101078.84;4878167;29;20028;-73
2022/07/14 06:39:15;;;;;;;2.17;0.80;;;;;;;14.97;58.17;101081.28;4896293;29;20425;-75
2022/07/14 06:41:41;;;;;;;1.90;0.65;;;;;;;15.12;57.99;101085.91;4895077;29;20115;-71
2022/07/14 06:44:07;;;;;;;1.60;0.70;;;;;;;15.21;57.74;101086.16;4894557;29;20092;-72
2022/07/14 06:46:33;;;;;;;3.33;0.90;;;;;;;15.30;56.91;101086.41;4874103;29;20477;-73
2022/07/14 06:48:59;;;;;;;8.18;1.42;;;;;;;15.43;56.37;101090.50;4882803;29;20028;-73
2022/07/14 06:51:25;;;;;;;2.50;0.82;;;;;;;15.57;56.75;101087.97;4863419;29;20056;-73
2022/07/14 06:53:51;;;;;;;2.72;0.80;;;;;;;15.68;56.10;101084.00;4884225;29;20857;-72
2022/07/14 06:56:17;;;;;;;2.22;0.90;;;;;;;15.80;55.80;101092.81;4898974;29;20028;-72
2022/07/14 06:58:42;;;;;;;3.53;0.98;;;;;;;15.93;55.61;101085.00;4884015;29;20035;-73
2022/07/14 07:01:08;;;;;;;2.85;1.00;;;;;;;15.98;55.20;101082.22;4884281;29;20522;-73
2022/07/14 07:03:33;;;;;;;1.58;0.70;;;;;;;16.07;54.94;101086.00;4889474;29;20039;-75
2022/07/14 07:08:43;;;;;;;1.98;0.77;;;;;;;16.30;54.54;101089.16;4898346;29;20038;-73
2022/07/14 07:11:09;;;;;;;1.77;0.90;;;;;;;16.39;54.71;101088.22;4899202;29;20024;-73
2022/07/14 07:13:35;;;;;;;6.82;1.20;;;;;;;16.56;53.94;101092.53;4887404;29;20032;-73
2022/07/14 07:16:07;;;;;;;2.40;1.15;;;;;;;16.73;53.42;101108.66;4887245;29;20055;-72
2022/07/14 07:18:34;;;;;;;1.45;0.68;;;;;;;16.85;53.33;101100.81;4897290;29;20024;-71
2022/07/14 07:21:00;;;;;;;1.30;0.68;;;;;;;16.97;52.24;101099.59;4897560;29;20128;-71
2022/07/14 07:23:25;;;;;;;3.20;0.70;;;;;;;17.08;51.63;101103.91;4869156;29;20047;-72
2022/07/14 07:25:52;;;;;;;3.38;0.80;;;;;;;17.21;50.63;101100.41;4861582;29;20048;-72
2022/07/14 07:28:17;;;;;;;1.63;0.73;;;;;;;17.31;51.27;101085.66;4881076;29;20104;-72
2022/07/14 07:30:43;;;;;;;8.38;0.95;;;;;;;17.39;50.25;101089.72;4882459;29;20071;-72
2022/07/14 07:33:08;;;;;;;1.85;0.70;;;;;;;17.45;50.13;101085.78;4899707;29;20040;-71
2022/07/14 07:35:34;;;;;;;1.70;0.70;;;;;;;17.58;50.17;101089.72;4879118;29;20025;-72
2022/07/14 07:38:00;;;;;;;0.43;0.43;;;;;;;17.71;49.95;101099.25;4897575;29;20025;-71
2022/07/14 07:40:26;;;;;;;1.20;0.50;;;;;;;17.77;50.22;101087.81;4899345;29;20034;-71
2022/07/14 07:42:51;;;;;;;1.90;0.80;;;;;;;17.95;50.12;101091.72;4884177;29;20463;-72
2022/07/14 07:45:17;;;;;;;0.95;0.52;;;;;;;18.09;49.43;101096.50;4898349;29;20037;-72
2022/07/14 07:47:43;;;;;;;3.83;0.77;;;;;;;18.23;48.88;101099.34;4885983;29;20028;-73
2022/07/14 07:50:10;;;;;;;1.00;0.50;;;;;;;18.38;48.16;101106.56;4868429;29;20080;-71
2022/07/14 07:52:36;;;;;;;3.85;0.50;;;;;;;18.47;47.24;101107.53;4903413;29;20549;-71
2022/07/14 07:55:01;;;;;;;0.70;0.40;;;;;;;18.50;47.29;101109.72;4894879;29;20115;-72
2022/07/14 07:57:27;;;;;;;2.00;0.50;;;;;;;18.47;46.50;101099.22;4892421;29;20024;-72
2022/07/14 07:59:52;;;;;;;2.70;0.60;;;;;;;18.54;46.51;101104.38;4878676;29;20036;-72
2022/07/14 08:02:18;;;;;;;2.05;0.38;;;;;;;18.66;46.42;101105.53;4894378;29;20431;-73
2022/07/14 08:04:44;;;;;;;3.35;0.60;;;;;;;18.82;46.08;101100.53;4895758;29;20032;-73
2022/07/14 08:07:10;;;;;;;1.88;0.45;;;;;;;18.95;44.74;101101.72;4882288;29;20039;-70
2022/07/14 08:09:38;;;;;;;1.65;0.55;;;;;;;18.96;44.49;101100.56;4877345;29;20765;-71
2022/07/14 08:12:04;;;;;;;0.90;0.30;;;;;;;19.02;44.13;101093.00;4882056;29;20021;-72
2022/07/14 08:14:48;;;;;;;0.98;0.55;;;;;;;19.10;44.03;101088.66;4895490;29;20047;-72
2022/07/14 08:17:14;;;;;;;0.65;0.47;;;;;;;19.18;43.79;101085.19;4879499;29;20044;-70
2022/07/14 08:19:42;;;;;;;1.95;0.40;;;;;;;19.31;43.96;101083.56;4876386;29;20450;-72
2022/07/14 08:22:07;;;;;;;3.72;0.57;;;;;;;19.48;42.75;101102.34;4868193;29;20029;-71
2022/07/14 08:24:33;;;;;;;0.30;0.20;;;;;;;19.53;43.24;101096.66;4899410;29;20032;-72
2022/07/14 08:26:58;;;;;;;1.65;0.50;;;;;;;19.64;41.99;101098.09;4908610;29;20463;-72
2022/07/14 08:29:23;;;;;;;0.85;0.50;;;;;;;19.72;42.50;101093.75;4898502;29;20042;-74
2022/07/14 08:31:49;;;;;;;0.98;0.30;;;;;;;19.85;41.82;101103.22;4866319;29;20049;-73
2022/07/14 08:34:15;;;;;;;0.98;0.30;;;;;;;19.93;41.79;101099.72;4897580;29;20036;-69
2022/07/14 08:36:41;;;;;;;5.25;0.40;;;;;;;20.00;40.94;101094.53;4895908;29;20039;-69
2022/07/14 08:39:06;;;;;;;0.25;0.25;;;;;;;20.08;41.06;101098.53;4891782;29;20064;-69
2022/07/14 08:41:34;;;;;;;1.38;0.40;;;;;;;20.20;40.64;101101.53;4862440;29;20044;-69
2022/07/14 08:44:00;;;;;;;1.00;0.40;;;;;;;20.24;39.72;101104.53;4880831;29;20032;-69
2022/07/14 08:46:26;;;;;;;1.85;0.50;;;;;;;20.29;39.40;101098.84;4877641;29;20025;-70
2022/07/14 08:48:53;;;;;;;1.30;0.55;;;;;;;20.35;40.14;101097.56;4895562;29;20059;-70
2022/07/14 08:51:19;;;;;;;1.98;0.63;;;;;;;20.52;40.21;101104.41;4878245;29;20037;-70
2022/07/14 08:53:45;;;;;;;0.40;0.38;;;;;;;20.65;39.66;101097.94;4890980;29;20120;-69
2022/07/14 08:56:11;;;;;;;1.33;0.40;;;;;;;20.81;39.68;101105.88;4879279;29;20040;-69
2022/07/14 08:58:38;;;;;;;0.50;0.32;;;;;;;20.88;39.35;101100.69;4862762;29;20372;-69
2022/07/14 09:01:03;;;;;;;3.15;0.65;;;;;;;20.98;38.73;101094.84;4872234;29;20540;-69
2022/07/14 09:03:29;;;;;;;2.58;0.50;;;;;;;21.07;38.35;101092.09;4861621;29;20087;-68
2022/07/14 09:05:54;;;;;;;1.35;0.50;;;;;;;21.15;37.75;101101.63;4878395;29;20040;-68
2022/07/14 09:08:20;;;;;;;0.68;0.35;;;;;;;21.20;37.88;101095.91;4863264;29;20032;-70
2022/07/14 09:10:46;;;;;;;1.10;0.40;;;;;;;21.39;38.10;101102.03;4878320;29;20423;-69
2022/07/14 09:13:14;;;;;;;0.80;0.47;;;;;;;21.49;37.37;101098.13;4878912;29;20053;-69
2022/07/14 09:15:45;;;;;;;1.30;0.50;;;;;;;21.62;37.42;101104.72;4898929;29;20100;-70
2022/07/14 09:18:27;;;;;;;0.52;0.40;;;;;;;21.69;37.20;101096.72;4890573;29;20119;-71
2022/07/14 09:20:55;;;;;;;1.73;0.50;;;;;;;21.73;37.27;101094.94;4879311;29;20056;-70
2022/07/14 09:23:28;;;;;;;6.80;0.40;;;;;;;21.79;36.93;101090.84;4877320;29;20189;-69
2022/07/14 09:26:29;;;;;;;2.03;0.60;;;;;;;21.86;37.07;101083.97;4898639;29;20092;-70
2022/07/14 09:28:55;;;;;;;1.17;0.43;;;;;;;22.00;36.53;101090.19;4853539;29;20288;-70
2022/07/14 09:31:25;;;;;;;1.73;0.65;;;;;;;21.98;36.59;101084.13;4878303;29;20127;-70
2022/07/14 09:33:52;;;;;;;1.58;0.40;;;;;;;22.09;36.39;101085.47;4894522;29;20071;-69
2022/07/14 09:36:36;;;;;;;1.33;0.52;;;;;;;22.22;36.34;101096.75;4872626;29;20032;-69
2022/07/14 09:39:09;;;;;;;0.63;0.30;;;;;;;22.33;37.04;101092.50;4884895;29;20088;-69
2022/07/14 09:41:53;;;;;;;3.70;0.40;;;;;;;22.38;36.59;101089.53;4886333;29;20067;-69
2022/07/14 09:44:19;;;;;;;1.70;0.47;;;;;;;22.54;36.84;101089.03;4860321;29;20769;-68
2022/07/14 09:46:58;;;;;;;0.60;0.45;;;;;;;22.67;36.13;101090.78;4861541;29;20680;-69
2022/07/14 09:49:26;;;;;;;2.92;0.52;;;;;;;22.71;36.41;101090.97;4893136;29;20043;-70
2022/07/14 09:52:00;;;;;;;0.73;0.40;;;;;;;22.79;36.79;101090.94;4879401;29;20005;-69
2022/07/14 09:54:44;;;;;;;1.38;0.30;;;;;;;22.93;36.45;101087.09;4884690;29;20027;-70
2022/07/14 09:57:12;;;;;;;1.92;0.50;;;;;;;23.15;35.83;101089.66;4901691;29;20025;-70
2022/07/14 09:59:48;;;;;;;2.10;0.43;;;;;;;23.36;34.55;101088.88;4892551;29;20029;-69
2022/07/14 10:02:18;;;;;;;1.20;0.60;;;;;;;23.64;34.83;101089.22;4899626;29;20028;-70
2022/07/14 10:04:45;;;;;;;0.70;0.40;;;;;;;24.72;34.32;101086.78;4883176;29;20463;-70
2022/07/14 10:07:12;;;;;;;1.65;0.80;;;;;;;26.92;29.99;101094.25;4897927;29;20065;-69
2022/07/14 10:09:43;;;;;;;0.43;0.28;;;;;;;29.84;26.11;101099.19;4865805;29;20496;-69
2022/07/14 10:12:09;;;;;;;6.55;1.20;;;;;;;32.57;21.65;101108.22;4897808;29;20048;-70
2022/07/14 10:14:36;;;;;;;1.83;0.80;;;;;;;34.71;19.77;101113.03;4866732;29;20052;-69
2022/07/14 10:17:02;;;;;;;1.42;0.65;;;;;;;36.91;17.86;101114.22;4860923;29;1158970;-69
2022/07/14 10:19:28;;;;;;;0.50;0.50;;;;;;;39.12;16.04;101124.78;4865488;29;20395;-69
2022/07/14 10:21:58;;;;;;;1.45;0.80;;;;;;;41.05;14.95;101128.13;4884269;29;20025;-69
2022/07/14 10:24:24;;;;;;;0.90;0.70;;;;;;;42.24;13.46;101123.84;4889162;29;20028;-69
2022/07/14 10:26:51;;;;;;;1.10;0.70;;;;;;;43.31;13.21;101129.28;4882566;29;20068;-70
2022/07/14 10:29:17;;;;;;;0.82;0.40;;;;;;;44.65;13.00;101135.50;4882154;29;20043;-69
2022/07/14 10:32:18;;;;;;;0.95;0.60;;;;;;;46.10;11.76;101117.97;4867047;29;20036;-69
2022/07/14 10:34:59;;;;;;;2.13;0.70;;;;;;;47.25;10.15;101122.06;4834190;29;20043;-69
2022/07/14 10:37:52;;;;;;;1.85;0.60;;;;;;;47.95;10.23;101120.97;4897567;29;20114;-70
2022/07/14 10:40:55;;;;;;;1.40;0.63;;;;;;;48.51;9.76;101122.75;4891583;29;20038;-70
2022/07/14 10:43:27;;;;;;;1.70;0.50;;;;;;;48.77;8.96;101113.16;4881200;29;20139;-72
2022/07/14 10:45:54;;;;;;;0.73;0.40;;;;;;;49.47;9.85;101111.59;4881359;29;20392;-69
2022/07/14 10:48:31;;;;;;;1.38;0.63;;;;;;;50.72;9.33;101118.22;4898094;29;20043;-70
2022/07/14 10:51:16;;;;;;;1.77;0.60;;;;;;;51.56;8.91;101112.56;4897613;29;20036;-70
2022/07/14 10:54:01;;;;;;;1.02;0.50;;;;;;;51.98;7.60;101119.91;4898235;29;20107;-70
2022/07/14 10:56:28;;;;;;;2.35;0.52;;;;;;;52.06;7.63;101117.22;4881492;29;20036;-71
2022/07/14 10:59:25;;;;;;;0.65;0.30;;;;;;;53.09;7.31;101119.84;4881396;29;20040;-70
2022/07/14 11:02:28;;;;;;;0.95;0.40;;;;;;;52.84;7.11;101116.97;4887834;29;20070;-71
2022/07/14 11:05:07;;;;;;;1.33;0.40;;;;;;;53.09;6.76;101108.94;4824934;29;20060;-70
2022/07/14 11:07:51;;;;;;;2.78;0.52;;;;;;;54.05;6.64;101115.47;4887782;29;20040;-70
2022/07/14 11:10:19;;;;;;;0.65;0.30;;;;;;;53.00;6.28;101107.19;4884199;29;20045;-71
2022/07/14 11:13:02;;;;;;;6.63;0.60;;;;;;;52.26;6.20;101115.97;4896705;29;20036;-70
2022/07/14 11:16:02;;;;;;;0.70;0.40;;;;;;;51.57;6.55;101102.50;4889358;29;20041;-70
2022/07/14 11:18:41;;;;;;;1.25;0.32;;;;;;;51.82;6.74;101112.91;4878712;29;20052;-70
2022/07/14 11:21:17;;;;;;;6.63;0.70;;;;;;;52.01;6.15;101106.41;4867983;29;20096;-70
2022/07/14 11:23:46;;;;;;;3.67;0.80;;;;;;;51.30;6.08;101100.00;4879719;29;20040;-69
2022/07/14 11:26:31;;;;;;;0.77;0.30;;;;;;;51.33;6.67;101103.94;4876491;29;20041;-71
2022/07/14 11:28:58;;;;;;;1.38;0.40;;;;;;;52.07;6.16;101103.44;4871584;29;20040;-70
2022/07/14 11:31:24;;;;;;;2.15;0.50;;;;;;;53.02;6.31;101101.59;4876728;29;20021;-70
2022/07/14 11:37:00;;;;;;;4.00;0.80;;;;;;;53.42;5.16;101106.13;4879668;29;20361;-70
2022/07/14 11:39:32;;;;;;;0.47;0.30;;;;;;;53.22;5.54;101099.47;4866046;29;20074;-69
2022/07/14 11:42:13;;;;;;;1.60;0.50;;;;;;;53.72;5.36;101103.78;4881657;29;20020;-71
2022/07/14 11:44:38;;;;;;;0.52;0.40;;;;;;;52.30;5.88;101098.19;4872896;29;20384;-70